TimeEST,TemperatureF,Dew PointF,Humidity,Sea Level PressureIn,VisibilityMPH,Wind Direction,Wind SpeedMPH,Gust SpeedMPH,PrecipitationIn,Events,Conditions,WindDirDegrees,DateUTC
12:15 AM,30.2,28.4,93,30.03,10.0,Calm,Calm,-,N/A,,Mostly Cloudy,0,2012-11-26 05:15:00
12:35 AM,32.0,28.4,87,30.04,10.0,Calm,Calm,-,N/A,,Overcast,0,2012-11-26 05:35:00
12:55 AM,32.0,28.4,87,30.04,10.0,Calm,Calm,-,N/A,,Overcast,0,2012-11-26 05:55:00
1:15 AM,32.0,28.4,87,30.04,10.0,Calm,Calm,-,N/A,,Overcast,0,2012-11-26 06:15:00
1:35 AM,32.0,28.4,87,30.05,10.0,Calm,Calm,-,N/A,,Scattered Clouds,0,2012-11-26 06:35:00
1:55 AM,30.2,26.6,86,30.05,10.0,Calm,Calm,-,N/A,,Clear,0,2012-11-26 06:55:00
2:15 AM,30.2,26.6,86,30.06,10.0,Calm,Calm,-,N/A,,Clear,0,2012-11-26 07:15:00
2:35 AM,28.4,26.6,93,30.06,10.0,Calm,Calm,-,N/A,,Clear,0,2012-11-26 07:35:00
2:55 AM,30.2,26.6,86,30.07,10.0,WSW,3.5,-,N/A,,Clear,250,2012-11-26 07:55:00
3:15 AM,28.4,26.6,93,30.07,10.0,Calm,Calm,-,N/A,,Clear,0,2012-11-26 08:15:00
3:35 AM,30.2,26.6,86,30.08,10.0,Calm,Calm,-,N/A,,Clear,0,2012-11-26 08:35:00
3:55 AM,28.4,24.8,86,30.08,10.0,West,4.6,-,N/A,,Clear,270,2012-11-26 08:55:00
4:15 AM,30.2,26.6,86,30.09,10.0,Calm,Calm,-,N/A,,Clear,0,2012-11-26 09:15:00
4:35 AM,26.6,23.0,86,30.09,10.0,WSW,3.5,-,N/A,,Clear,240,2012-11-26 09:35:00
4:55 AM,28.4,26.6,93,30.10,10.0,Calm,Calm,-,N/A,,Clear,0,2012-11-26 09:55:00
5:15 AM,28.4,24.8,86,30.10,10.0,Calm,Calm,-,N/A,,Clear,0,2012-11-26 10:15:00
5:35 AM,28.4,26.6,93,30.11,10.0,Calm,Calm,-,N/A,,Clear,0,2012-11-26 10:35:00
5:55 AM,26.6,23.0,86,30.12,7.0,Calm,Calm,-,N/A,,Clear,0,2012-11-26 10:55:00
6:15 AM,24.8,23.0,93,30.13,7.0,Calm,Calm,-,N/A,,Clear,0,2012-11-26 11:15:00
6:35 AM,24.8,23.0,93,30.13,5.0,Calm,Calm,-,N/A,,Clear,0,2012-11-26 11:35:00
6:55 AM,24.8,23.0,93,30.14,7.0,Calm,Calm,-,N/A,,Mostly Cloudy,0,2012-11-26 11:55:00
7:15 AM,24.8,21.2,86,30.15,7.0,Calm,Calm,-,N/A,,Mostly Cloudy,0,2012-11-26 12:15:00
7:35 AM,24.8,23.0,93,30.15,7.0,Calm,Calm,-,N/A,,Mostly Cloudy,0,2012-11-26 12:35:00
7:55 AM,26.6,23.0,86,30.15,5.0,Calm,Calm,-,N/A,,Mostly Cloudy,0,2012-11-26 12:55:00
8:15 AM,26.6,23.0,86,30.16,5.0,Calm,Calm,-,N/A,,Scattered Clouds,0,2012-11-26 13:15:00
8:35 AM,24.8,23.0,93,30.17,5.0,Calm,Calm,-,N/A,,Scattered Clouds,0,2012-11-26 13:35:00
8:55 AM,26.6,23.0,86,30.18,5.0,Calm,Calm,-,N/A,,Scattered Clouds,0,2012-11-26 13:55:00
9:15 AM,26.6,24.8,93,30.18,5.0,Calm,Calm,-,N/A,,Scattered Clouds,0,2012-11-26 14:15:00
10:15 AM,32.0,30.2,93,30.19,7.0,Calm,Calm,-,N/A,,Scattered Clouds,0,2012-11-26 15:15:00
10:35 AM,33.8,30.2,87,30.20,10.0,Calm,Calm,-,N/A,,Clear,0,2012-11-26 15:35:00
10:55 AM,35.6,30.2,81,30.20,10.0,Calm,Calm,-,N/A,,Clear,0,2012-11-26 15:55:00
11:15 AM,37.4,28.4,70,30.20,10.0,NW,5.8,-,N/A,,Scattered Clouds,320,2012-11-26 16:15:00
11:35 AM,35.6,28.4,75,30.20,10.0,NW,8.1,-,N/A,,Clear,310,2012-11-26 16:35:00
11:55 AM,35.6,28.4,75,30.20,10.0,WNW,6.9,-,N/A,,Clear,300,2012-11-26 16:55:00
12:15 PM,37.4,28.4,70,30.19,10.0,NW,4.6,-,N/A,,Scattered Clouds,320,2012-11-26 17:15:00
12:35 PM,37.4,28.4,70,30.19,10.0,WNW,9.2,-,N/A,,Scattered Clouds,300,2012-11-26 17:35:00
12:55 PM,37.4,28.4,70,30.19,10.0,NW,5.8,-,N/A,,Scattered Clouds,310,2012-11-26 17:55:00
1:15 PM,37.4,28.4,70,30.18,10.0,NW,6.9,-,N/A,,Mostly Cloudy,310,2012-11-26 18:15:00
1:35 PM,37.4,26.6,65,30.19,10.0,NW,5.8,-,N/A,,Mostly Cloudy,320,2012-11-26 18:35:00
1:55 PM,37.4,26.6,65,30.19,10.0,NW,6.9,-,N/A,,Mostly Cloudy,310,2012-11-26 18:55:00
2:15 PM,37.4,26.6,65,30.19,10.0,NNW,6.9,-,N/A,,Mostly Cloudy,330,2012-11-26 19:15:00
2:35 PM,37.4,26.6,65,30.20,10.0,NNW,8.1,-,N/A,,Overcast,330,2012-11-26 19:35:00
2:55 PM,37.4,26.6,65,30.20,10.0,NNW,9.2,-,N/A,,Mostly Cloudy,330,2012-11-26 19:55:00
3:15 PM,35.6,24.8,65,30.20,10.0,NNW,6.9,-,N/A,,Mostly Cloudy,330,2012-11-26 20:15:00
3:35 PM,35.6,24.8,65,30.20,10.0,NNW,8.1,-,N/A,,Scattered Clouds,330,2012-11-26 20:35:00
3:55 PM,35.6,23.0,60,30.20,10.0,NW,8.1,-,N/A,,Scattered Clouds,310,2012-11-26 20:55:00
4:15 PM,35.6,23.0,60,30.20,10.0,North,5.8,-,N/A,,Mostly Cloudy,350,2012-11-26 21:15:00
4:35 PM,35.6,23.0,60,30.21,10.0,NNW,4.6,-,N/A,,Overcast,330,2012-11-26 21:35:00
4:55 PM,35.6,23.0,60,30.21,10.0,NNW,8.1,-,N/A,,Overcast,340,2012-11-26 21:55:00
5:15 PM,33.8,23.0,65,30.22,10.0,North,10.4,-,N/A,,Overcast,350,2012-11-26 22:15:00
5:35 PM,33.8,23.0,65,30.22,10.0,North,6.9,-,N/A,,Overcast,350,2012-11-26 22:35:00
5:55 PM,33.8,21.2,60,30.22,10.0,North,5.8,-,N/A,,Overcast,360,2012-11-26 22:55:00
6:15 PM,33.8,23.0,65,30.23,10.0,North,4.6,-,N/A,,Overcast,350,2012-11-26 23:15:00
6:35 PM,32.0,23.0,69,30.24,10.0,North,3.5,-,N/A,,Overcast,350,2012-11-26 23:35:00
6:55 PM,32.0,23.0,69,30.24,10.0,Calm,Calm,-,N/A,,Overcast,0,2012-11-26 23:55:00
7:15 PM,32.0,23.0,69,30.25,10.0,NNW,3.5,-,N/A,,Overcast,330,2012-11-27 00:15:00
7:35 PM,32.0,23.0,69,30.26,10.0,NW,5.8,-,N/A,,Overcast,320,2012-11-27 00:35:00
7:55 PM,32.0,23.0,69,30.27,10.0,NNW,6.9,-,N/A,,Overcast,330,2012-11-27 00:55:00
8:15 PM,32.0,23.0,69,30.27,10.0,NNW,6.9,-,N/A,,Overcast,340,2012-11-27 01:15:00
8:35 PM,32.0,23.0,69,30.28,10.0,NNW,8.1,-,N/A,,Overcast,330,2012-11-27 01:35:00
8:55 PM,32.0,23.0,69,30.28,10.0,NNW,3.5,-,N/A,,Overcast,340,2012-11-27 01:55:00
9:15 PM,32.0,23.0,69,30.28,10.0,NNW,3.5,-,N/A,,Overcast,340,2012-11-27 02:15:00
9:35 PM,32.0,23.0,69,30.29,10.0,NNW,3.5,-,N/A,,Overcast,330,2012-11-27 02:35:00
9:55 PM,32.0,23.0,69,30.30,10.0,Calm,Calm,-,N/A,,Overcast,0,2012-11-27 02:55:00
10:15 PM,32.0,23.0,69,30.30,10.0,Calm,Calm,-,N/A,,Overcast,0,2012-11-27 03:15:00
10:35 PM,32.0,23.0,69,30.30,10.0,Calm,Calm,-,N/A,,Overcast,0,2012-11-27 03:35:00
10:55 PM,32.0,24.8,75,30.30,10.0,Calm,Calm,-,N/A,,Overcast,0,2012-11-27 03:55:00
11:15 PM,32.0,24.8,75,30.30,10.0,WNW,3.5,-,N/A,,Overcast,300,2012-11-27 04:15:00
11:35 PM,32.0,24.8,75,30.30,10.0,WNW,3.5,-,N/A,,Overcast,300,2012-11-27 04:35:00
11:55 PM,32.0,24.8,75,30.31,10.0,Calm,Calm,-,N/A,,Overcast,0,2012-11-27 04:55:00